sensor_id;sensor_type;location;lat;lon;timestamp;P1;durP1;ratioP1;P2;durP2;ratioP2
59458;SDS011;45269;43.568;22.244;2022-07-21T00:00:17;4.05;;;3.47;;
59458;SDS011;45269;43.568;22.244;2022-07-21T00:02:43;4.10;;;3.20;;
59458;SDS011;45269;43.568;22.244;2022-07-21T00:05:09;3.83;;;3.25;;
59458;SDS011;45269;43.568;22.244;2022-07-21T00:07:34;3.10;;;2.80;;
59458;SDS011;45269;43.568;22.244;2022-07-21T00:09:59;3.20;;;2.88;;
59458;SDS011;45269;43.568;22.244;2022-07-21T00:12:25;3.50;;;3.20;;
59458;SDS011;45269;43.568;22.244;2022-07-21T00:14:50;3.50;;;3.00;;
59458;SDS011;45269;43.568;22.244;2022-07-21T00:17:15;3.03;;;2.78;;
59458;SDS011;45269;43.568;22.244;2022-07-21T00:19:41;3.60;;;3.05;;
59458;SDS011;45269;43.568;22.244;2022-07-21T00:22:06;4.10;;;3.40;;
59458;SDS011;45269;43.568;22.244;2022-07-21T00:24:31;3.70;;;2.90;;
59458;SDS011;45269;43.568;22.244;2022-07-21T00:26:57;3.17;;;2.88;;
59458;SDS011;45269;43.568;22.244;2022-07-21T00:29:22;3.40;;;3.05;;
59458;SDS011;45269;43.568;22.244;2022-07-21T00:31:47;4.03;;;3.05;;
59458;SDS011;45269;43.568;22.244;2022-07-21T00:34:13;6.03;;;3.30;;
59458;SDS011;45269;43.568;22.244;2022-07-21T00:36:38;4.47;;;3.33;;
59458;SDS011;45269;43.568;22.244;2022-07-21T00:39:04;2.97;;;2.78;;
59458;SDS011;45269;43.568;22.244;2022-07-21T00:41:29;3.53;;;3.20;;
59458;SDS011;45269;43.568;22.244;2022-07-21T00:43:54;3.50;;;3.00;;
59458;SDS011;45269;43.568;22.244;2022-07-21T00:46:20;3.40;;;3.10;;
59458;SDS011;45269;43.568;22.244;2022-07-21T00:48:45;5.28;;;3.10;;
59458;SDS011;45269;43.568;22.244;2022-07-21T00:51:11;3.47;;;3.17;;
59458;SDS011;45269;43.568;22.244;2022-07-21T00:53:36;3.35;;;3.05;;
59458;SDS011;45269;43.568;22.244;2022-07-21T00:56:01;4.45;;;2.90;;
59458;SDS011;45269;43.568;22.244;2022-07-21T00:58:27;2.95;;;2.75;;
59458;SDS011;45269;43.568;22.244;2022-07-21T01:00:52;3.00;;;2.80;;
59458;SDS011;45269;43.568;22.244;2022-07-21T01:03:18;3.35;;;3.05;;
59458;SDS011;45269;43.568;22.244;2022-07-21T01:05:43;4.00;;;3.05;;
59458;SDS011;45269;43.568;22.244;2022-07-21T01:08:08;3.70;;;2.92;;
59458;SDS011;45269;43.568;22.244;2022-07-21T01:10:34;4.95;;;2.92;;
59458;SDS011;45269;43.568;22.244;2022-07-21T01:13:00;3.10;;;2.80;;
59458;SDS011;45269;43.568;22.244;2022-07-21T01:15:25;3.25;;;3.00;;
59458;SDS011;45269;43.568;22.244;2022-07-21T01:17:51;4.05;;;2.90;;
59458;SDS011;45269;43.568;22.244;2022-07-21T01:20:17;3.83;;;3.25;;
59458;SDS011;45269;43.568;22.244;2022-07-21T01:22:45;3.72;;;3.00;;
59458;SDS011;45269;43.568;22.244;2022-07-21T01:25:11;4.75;;;3.05;;
59458;SDS011;45269;43.568;22.244;2022-07-21T01:27:36;3.28;;;3.03;;
59458;SDS011;45269;43.568;22.244;2022-07-21T01:30:03;3.08;;;2.88;;
59458;SDS011;45269;43.568;22.244;2022-07-21T01:32:28;4.38;;;3.17;;
59458;SDS011;45269;43.568;22.244;2022-07-21T01:34:54;5.82;;;3.33;;
59458;SDS011;45269;43.568;22.244;2022-07-21T01:37:20;3.15;;;2.75;;
59458;SDS011;45269;43.568;22.244;2022-07-21T01:39:46;6.20;;;3.47;;
59458;SDS011;45269;43.568;22.244;2022-07-21T01:42:30;3.90;;;2.80;;
59458;SDS011;45269;43.568;22.244;2022-07-21T01:44:56;7.18;;;3.30;;
59458;SDS011;45269;43.568;22.244;2022-07-21T01:47:22;5.53;;;3.30;;
59458;SDS011;45269;43.568;22.244;2022-07-21T01:49:48;3.88;;;3.05;;
59458;SDS011;45269;43.568;22.244;2022-07-21T01:52:13;3.10;;;2.80;;
59458;SDS011;45269;43.568;22.244;2022-07-21T01:54:38;3.63;;;3.33;;
59458;SDS011;45269;43.568;22.244;2022-07-21T01:57:04;3.35;;;3.05;;
59458;SDS011;45269;43.568;22.244;2022-07-21T01:59:29;3.47;;;3.20;;
59458;SDS011;45269;43.568;22.244;2022-07-21T02:01:54;4.88;;;3.53;;
59458;SDS011;45269;43.568;22.244;2022-07-21T02:04:20;3.70;;;3.17;;
59458;SDS011;45269;43.568;22.244;2022-07-21T02:06:45;5.35;;;3.83;;
59458;SDS011;45269;43.568;22.244;2022-07-21T02:09:10;4.45;;;3.50;;
59458;SDS011;45269;43.568;22.244;2022-07-21T02:11:36;4.07;;;3.22;;
59458;SDS011;45269;43.568;22.244;2022-07-21T02:14:01;6.38;;;4.00;;
59458;SDS011;45269;43.568;22.244;2022-07-21T02:16:27;6.38;;;4.82;;
59458;SDS011;45269;43.568;22.244;2022-07-21T02:18:52;4.38;;;3.97;;
59458;SDS011;45269;43.568;22.244;2022-07-21T02:21:17;3.50;;;3.20;;
59458;SDS011;45269;43.568;22.244;2022-07-21T02:23:43;7.78;;;3.50;;
59458;SDS011;45269;43.568;22.244;2022-07-21T02:26:08;3.33;;;3.00;;
59458;SDS011;45269;43.568;22.244;2022-07-21T02:28:34;3.78;;;3.20;;
59458;SDS011;45269;43.568;22.244;2022-07-21T02:30:59;3.60;;;3.30;;
59458;SDS011;45269;43.568;22.244;2022-07-21T02:33:24;3.50;;;3.20;;
59458;SDS011;45269;43.568;22.244;2022-07-21T02:35:50;4.95;;;3.33;;
59458;SDS011;45269;43.568;22.244;2022-07-21T02:38:15;3.55;;;3.25;;
59458;SDS011;45269;43.568;22.244;2022-07-21T02:40:41;5.53;;;3.30;;
59458;SDS011;45269;43.568;22.244;2022-07-21T02:43:06;3.80;;;3.42;;
59458;SDS011;45269;43.568;22.244;2022-07-21T02:45:32;4.05;;;3.00;;
59458;SDS011;45269;43.568;22.244;2022-07-21T02:50:24;3.33;;;2.60;;
59458;SDS011;45269;43.568;22.244;2022-07-21T02:52:49;4.78;;;2.85;;
59458;SDS011;45269;43.568;22.244;2022-07-21T02:55:15;3.95;;;3.47;;
59458;SDS011;45269;43.568;22.244;2022-07-21T02:57:41;3.40;;;3.10;;
59458;SDS011;45269;43.568;22.244;2022-07-21T03:00:07;3.80;;;3.50;;
59458;SDS011;45269;43.568;22.244;2022-07-21T03:02:32;3.72;;;3.13;;
59458;SDS011;45269;43.568;22.244;2022-07-21T03:04:58;3.40;;;3.10;;
59458;SDS011;45269;43.568;22.244;2022-07-21T03:07:24;3.05;;;2.85;;
59458;SDS011;45269;43.568;22.244;2022-07-21T03:09:49;4.43;;;3.47;;
59458;SDS011;45269;43.568;22.244;2022-07-21T03:12:14;4.78;;;2.95;;
59458;SDS011;45269;43.568;22.244;2022-07-21T03:14:40;4.97;;;3.28;;
59458;SDS011;45269;43.568;22.244;2022-07-21T03:17:05;3.53;;;3.15;;
59458;SDS011;45269;43.568;22.244;2022-07-21T03:19:30;3.78;;;3.25;;
59458;SDS011;45269;43.568;22.244;2022-07-21T03:21:56;5.20;;;3.10;;
59458;SDS011;45269;43.568;22.244;2022-07-21T03:24:21;4.30;;;3.15;;
59458;SDS011;45269;43.568;22.244;2022-07-21T03:26:46;3.40;;;3.08;;
59458;SDS011;45269;43.568;22.244;2022-07-21T03:29:12;3.67;;;3.10;;
59458;SDS011;45269;43.568;22.244;2022-07-21T03:31:37;3.63;;;3.33;;
59458;SDS011;45269;43.568;22.244;2022-07-21T03:34:03;5.00;;;3.33;;
59458;SDS011;45269;43.568;22.244;2022-07-21T03:36:28;3.50;;;3.28;;
59458;SDS011;45269;43.568;22.244;2022-07-21T03:38:53;3.67;;;3.38;;
59458;SDS011;45269;43.568;22.244;2022-07-21T03:41:19;4.22;;;3.75;;
59458;SDS011;45269;43.568;22.244;2022-07-21T03:43:44;3.67;;;3.38;;
59458;SDS011;45269;43.568;22.244;2022-07-21T03:46:09;3.60;;;3.10;;
59458;SDS011;45269;43.568;22.244;2022-07-21T03:48:35;4.47;;;3.60;;
59458;SDS011;45269;43.568;22.244;2022-07-21T03:51:00;3.85;;;3.50;;
59458;SDS011;45269;43.568;22.244;2022-07-21T03:53:25;3.75;;;3.40;;
59458;SDS011;45269;43.568;22.244;2022-07-21T03:55:51;3.45;;;3.25;;
59458;SDS011;45269;43.568;22.244;2022-07-21T03:58:16;3.67;;;3.20;;
59458;SDS011;45269;43.568;22.244;2022-07-21T04:00:42;4.28;;;3.53;;
59458;SDS011;45269;43.568;22.244;2022-07-21T04:03:08;3.67;;;3.20;;
59458;SDS011;45269;43.568;22.244;2022-07-21T04:05:34;3.35;;;3.05;;
59458;SDS011;45269;43.568;22.244;2022-07-21T04:07:59;4.53;;;3.05;;
59458;SDS011;45269;43.568;22.244;2022-07-21T04:10:26;3.83;;;3.35;;
59458;SDS011;45269;43.568;22.244;2022-07-21T04:12:52;5.57;;;3.25;;
59458;SDS011;45269;43.568;22.244;2022-07-21T04:15:18;3.63;;;3.33;;
59458;SDS011;45269;43.568;22.244;2022-07-21T04:17:43;4.53;;;3.78;;
59458;SDS011;45269;43.568;22.244;2022-07-21T04:20:10;5.68;;;4.05;;
59458;SDS011;45269;43.568;22.244;2022-07-21T04:22:36;4.47;;;3.70;;
59458;SDS011;45269;43.568;22.244;2022-07-21T04:25:02;3.50;;;3.20;;
59458;SDS011;45269;43.568;22.244;2022-07-21T04:27:29;4.70;;;3.97;;
59458;SDS011;45269;43.568;22.244;2022-07-21T04:29:55;3.47;;;3.28;;
59458;SDS011;45269;43.568;22.244;2022-07-21T04:32:21;4.03;;;3.55;;
59458;SDS011;45269;43.568;22.244;2022-07-21T04:34:46;5.10;;;3.58;;
59458;SDS011;45269;43.568;22.244;2022-07-21T04:37:11;3.53;;;3.22;;
59458;SDS011;45269;43.568;22.244;2022-07-21T04:39:37;4.00;;;3.67;;
59458;SDS011;45269;43.568;22.244;2022-07-21T04:42:02;8.20;;;3.88;;
59458;SDS011;45269;43.568;22.244;2022-07-21T04:44:27;5.30;;;3.60;;
59458;SDS011;45269;43.568;22.244;2022-07-21T04:46:53;4.00;;;3.67;;
59458;SDS011;45269;43.568;22.244;2022-07-21T04:49:18;4.40;;;3.30;;
59458;SDS011;45269;43.568;22.244;2022-07-21T04:51:44;4.72;;;3.63;;
59458;SDS011;45269;43.568;22.244;2022-07-21T04:54:09;4.00;;;3.60;;
59458;SDS011;45269;43.568;22.244;2022-07-21T04:56:34;6.78;;;3.72;;
59458;SDS011;45269;43.568;22.244;2022-07-21T04:59:01;7.47;;;3.55;;
59458;SDS011;45269;43.568;22.244;2022-07-21T05:01:26;4.10;;;3.70;;
59458;SDS011;45269;43.568;22.244;2022-07-21T05:03:52;5.72;;;3.50;;
59458;SDS011;45269;43.568;22.244;2022-07-21T05:06:17;5.53;;;3.42;;
59458;SDS011;45269;43.568;22.244;2022-07-21T05:08:43;4.53;;;3.90;;
59458;SDS011;45269;43.568;22.244;2022-07-21T05:11:09;4.78;;;3.42;;
59458;SDS011;45269;43.568;22.244;2022-07-21T05:13:34;4.45;;;3.55;;
59458;SDS011;45269;43.568;22.244;2022-07-21T05:15:59;6.07;;;3.45;;
59458;SDS011;45269;43.568;22.244;2022-07-21T05:18:25;6.75;;;3.63;;
59458;SDS011;45269;43.568;22.244;2022-07-21T05:20:50;3.50;;;3.25;;
59458;SDS011;45269;43.568;22.244;2022-07-21T05:23:15;4.88;;;3.42;;
59458;SDS011;45269;43.568;22.244;2022-07-21T05:25:41;3.25;;;2.97;;
59458;SDS011;45269;43.568;22.244;2022-07-21T05:28:06;4.20;;;3.30;;
59458;SDS011;45269;43.568;22.244;2022-07-21T05:30:32;4.53;;;3.03;;
59458;SDS011;45269;43.568;22.244;2022-07-21T05:32:57;3.92;;;3.55;;
59458;SDS011;45269;43.568;22.244;2022-07-21T05:35:23;4.25;;;3.40;;
59458;SDS011;45269;43.568;22.244;2022-07-21T05:37:48;5.07;;;3.38;;
59458;SDS011;45269;43.568;22.244;2022-07-21T05:40:13;5.68;;;3.28;;
59458;SDS011;45269;43.568;22.244;2022-07-21T05:42:39;6.05;;;2.97;;
59458;SDS011;45269;43.568;22.244;2022-07-21T05:45:08;4.88;;;3.60;;
59458;SDS011;45269;43.568;22.244;2022-07-21T05:47:34;7.47;;;3.15;;
59458;SDS011;45269;43.568;22.244;2022-07-21T05:49:59;3.25;;;2.85;;
59458;SDS011;45269;43.568;22.244;2022-07-21T05:52:25;6.90;;;2.78;;
59458;SDS011;45269;43.568;22.244;2022-07-21T05:54:50;4.10;;;2.90;;
59458;SDS011;45269;43.568;22.244;2022-07-21T05:57:15;8.60;;;3.30;;
59458;SDS011;45269;43.568;22.244;2022-07-21T05:59:42;3.65;;;2.60;;
59458;SDS011;45269;43.568;22.244;2022-07-21T06:02:07;4.38;;;2.95;;
59458;SDS011;45269;43.568;22.244;2022-07-21T06:04:33;3.47;;;2.88;;
59458;SDS011;45269;43.568;22.244;2022-07-21T06:06:58;4.07;;;2.88;;
59458;SDS011;45269;43.568;22.244;2022-07-21T06:09:23;3.63;;;3.30;;
59458;SDS011;45269;43.568;22.244;2022-07-21T06:11:49;4.28;;;3.58;;
59458;SDS011;45269;43.568;22.244;2022-07-21T06:14:14;5.65;;;4.47;;
59458;SDS011;45269;43.568;22.244;2022-07-21T06:16:39;7.57;;;6.72;;
59458;SDS011;45269;43.568;22.244;2022-07-21T06:19:05;6.93;;;6.22;;
59458;SDS011;45269;43.568;22.244;2022-07-21T06:21:31;7.30;;;5.97;;
59458;SDS011;45269;43.568;22.244;2022-07-21T06:23:57;5.55;;;5.05;;
59458;SDS011;45269;43.568;22.244;2022-07-21T06:26:22;6.47;;;4.80;;
59458;SDS011;45269;43.568;22.244;2022-07-21T06:28:47;5.75;;;5.22;;
59458;SDS011;45269;43.568;22.244;2022-07-21T06:31:13;6.10;;;4.00;;
59458;SDS011;45269;43.568;22.244;2022-07-21T06:33:38;3.85;;;3.40;;
59458;SDS011;45269;43.568;22.244;2022-07-21T06:36:03;3.85;;;2.92;;
59458;SDS011;45269;43.568;22.244;2022-07-21T06:38:29;3.50;;;3.20;;
59458;SDS011;45269;43.568;22.244;2022-07-21T06:40:54;3.90;;;2.70;;
59458;SDS011;45269;43.568;22.244;2022-07-21T06:43:20;10.18;;;3.30;;
59458;SDS011;45269;43.568;22.244;2022-07-21T06:45:45;4.72;;;2.85;;
59458;SDS011;45269;43.568;22.244;2022-07-21T06:48:10;3.72;;;2.70;;
59458;SDS011;45269;43.568;22.244;2022-07-21T06:50:37;3.58;;;2.80;;
59458;SDS011;45269;43.568;22.244;2022-07-21T06:53:03;4.38;;;2.83;;
59458;SDS011;45269;43.568;22.244;2022-07-21T06:55:29;3.08;;;2.58;;
59458;SDS011;45269;43.568;22.244;2022-07-21T06:57:54;3.92;;;2.63;;
59458;SDS011;45269;43.568;22.244;2022-07-21T07:00:21;3.10;;;2.78;;
59458;SDS011;45269;43.568;22.244;2022-07-21T07:02:46;2.50;;;2.30;;
59458;SDS011;45269;43.568;22.244;2022-07-21T07:05:12;2.58;;;2.38;;
59458;SDS011;45269;43.568;22.244;2022-07-21T07:07:37;4.00;;;2.55;;
59458;SDS011;45269;43.568;22.244;2022-07-21T07:10:03;3.25;;;2.53;;
59458;SDS011;45269;43.568;22.244;2022-07-21T07:12:29;3.80;;;2.63;;
59458;SDS011;45269;43.568;22.244;2022-07-21T07:14:54;2.95;;;2.67;;
59458;SDS011;45269;43.568;22.244;2022-07-21T07:17:19;3.40;;;2.50;;
59458;SDS011;45269;43.568;22.244;2022-07-21T07:19:45;3.67;;;2.78;;
59458;SDS011;45269;43.568;22.244;2022-07-21T07:22:11;3.53;;;2.47;;
59458;SDS011;45269;43.568;22.244;2022-07-21T07:24:36;3.25;;;2.70;;
59458;SDS011;45269;43.568;22.244;2022-07-21T07:27:01;2.65;;;2.40;;
59458;SDS011;45269;43.568;22.244;2022-07-21T07:29:27;2.47;;;2.20;;
59458;SDS011;45269;43.568;22.244;2022-07-21T07:31:54;3.78;;;2.35;;
59458;SDS011;45269;43.568;22.244;2022-07-21T07:34:19;5.35;;;2.78;;
59458;SDS011;45269;43.568;22.244;2022-07-21T07:36:44;5.10;;;2.28;;
59458;SDS011;45269;43.568;22.244;2022-07-21T07:39:10;3.25;;;2.35;;
59458;SDS011;45269;43.568;22.244;2022-07-21T07:41:35;6.07;;;2.60;;
59458;SDS011;45269;43.568;22.244;2022-07-21T07:44:01;3.55;;;2.50;;
59458;SDS011;45269;43.568;22.244;2022-07-21T07:46:26;3.53;;;2.60;;
59458;SDS011;45269;43.568;22.244;2022-07-21T07:48:52;3.03;;;2.42;;
59458;SDS011;45269;43.568;22.244;2022-07-21T07:51:17;2.67;;;2.47;;
59458;SDS011;45269;43.568;22.244;2022-07-21T07:53:43;3.97;;;2.17;;
59458;SDS011;45269;43.568;22.244;2022-07-21T07:56:08;2.50;;;2.30;;
59458;SDS011;45269;43.568;22.244;2022-07-21T07:58:34;9.00;;;2.80;;
59458;SDS011;45269;43.568;22.244;2022-07-21T08:00:59;3.15;;;2.35;;
59458;SDS011;45269;43.568;22.244;2022-07-21T08:03:25;2.42;;;2.22;;
59458;SDS011;45269;43.568;22.244;2022-07-21T08:05:51;2.95;;;2.40;;
59458;SDS011;45269;43.568;22.244;2022-07-21T08:08:16;2.58;;;2.20;;
59458;SDS011;45269;43.568;22.244;2022-07-21T08:10:42;2.53;;;2.33;;
59458;SDS011;45269;43.568;22.244;2022-07-21T08:13:09;2.28;;;2.00;;
59458;SDS011;45269;43.568;22.244;2022-07-21T08:15:34;2.55;;;2.28;;
59458;SDS011;45269;43.568;22.244;2022-07-21T08:18:00;4.18;;;2.10;;
59458;SDS011;45269;43.568;22.244;2022-07-21T08:20:25;2.97;;;1.95;;
59458;SDS011;45269;43.568;22.244;2022-07-21T08:22:50;2.30;;;2.10;;
59458;SDS011;45269;43.568;22.244;2022-07-21T08:25:16;2.78;;;2.22;;
59458;SDS011;45269;43.568;22.244;2022-07-21T08:27:41;2.63;;;1.92;;
59458;SDS011;45269;43.568;22.244;2022-07-21T08:30:07;4.15;;;1.92;;
59458;SDS011;45269;43.568;22.244;2022-07-21T08:32:33;5.68;;;2.00;;
59458;SDS011;45269;43.568;22.244;2022-07-21T08:34:58;2.28;;;2.08;;
59458;SDS011;45269;43.568;22.244;2022-07-21T08:37:23;8.15;;;2.00;;
59458;SDS011;45269;43.568;22.244;2022-07-21T08:39:49;4.93;;;2.08;;
59458;SDS011;45269;43.568;22.244;2022-07-21T08:42:14;4.65;;;2.40;;
59458;SDS011;45269;43.568;22.244;2022-07-21T08:44:40;5.75;;;2.20;;
59458;SDS011;45269;43.568;22.244;2022-07-21T08:47:05;4.55;;;2.05;;
59458;SDS011;45269;43.568;22.244;2022-07-21T08:49:31;4.10;;;2.35;;
59458;SDS011;45269;43.568;22.244;2022-07-21T08:51:57;3.60;;;2.53;;
59458;SDS011;45269;43.568;22.244;2022-07-21T08:54:22;3.67;;;2.25;;
59458;SDS011;45269;43.568;22.244;2022-07-21T08:56:48;3.60;;;2.33;;
59458;SDS011;45269;43.568;22.244;2022-07-21T08:59:13;2.78;;;2.25;;
59458;SDS011;45269;43.568;22.244;2022-07-21T09:01:39;3.35;;;2.30;;
59458;SDS011;45269;43.568;22.244;2022-07-21T09:04:20;2.72;;;2.25;;
59458;SDS011;45269;43.568;22.244;2022-07-21T09:06:56;3.38;;;2.47;;
59458;SDS011;45269;43.568;22.244;2022-07-21T09:09:22;2.20;;;2.00;;
59458;SDS011;45269;43.568;22.244;2022-07-21T09:11:47;2.45;;;2.10;;
59458;SDS011;45269;43.568;22.244;2022-07-21T09:14:14;2.30;;;1.80;;
59458;SDS011;45269;43.568;22.244;2022-07-21T09:19:15;2.97;;;2.33;;
59458;SDS011;45269;43.568;22.244;2022-07-21T09:21:40;2.50;;;2.00;;
59458;SDS011;45269;43.568;22.244;2022-07-21T09:26:56;4.82;;;2.30;;
59458;SDS011;45269;43.568;22.244;2022-07-21T09:29:22;2.90;;;2.30;;
59458;SDS011;45269;43.568;22.244;2022-07-21T09:31:47;3.35;;;2.38;;
59458;SDS011;45269;43.568;22.244;2022-07-21T09:34:13;4.97;;;2.30;;
59458;SDS011;45269;43.568;22.244;2022-07-21T09:36:39;3.78;;;2.15;;
59458;SDS011;45269;43.568;22.244;2022-07-21T09:39:04;5.75;;;2.22;;
59458;SDS011;45269;43.568;22.244;2022-07-21T09:41:30;2.88;;;2.28;;
59458;SDS011;45269;43.568;22.244;2022-07-21T09:43:56;4.82;;;2.42;;
59458;SDS011;45269;43.568;22.244;2022-07-21T09:48:50;3.25;;;2.45;;
59458;SDS011;45269;43.568;22.244;2022-07-21T09:56:24;3.70;;;2.47;;
59458;SDS011;45269;43.568;22.244;2022-07-21T09:58:51;2.67;;;2.35;;
59458;SDS011;45269;43.568;22.244;2022-07-21T10:01:16;5.75;;;3.17;;
59458;SDS011;45269;43.568;22.244;2022-07-21T10:03:46;6.55;;;2.58;;
59458;SDS011;45269;43.568;22.244;2022-07-21T10:06:11;2.92;;;2.60;;
59458;SDS011;45269;43.568;22.244;2022-07-21T10:08:37;6.18;;;3.13;;
59458;SDS011;45269;43.568;22.244;2022-07-21T10:11:03;5.22;;;2.92;;
59458;SDS011;45269;43.568;22.244;2022-07-21T10:13:28;6.72;;;2.65;;
59458;SDS011;45269;43.568;22.244;2022-07-21T10:15:54;3.00;;;2.17;;
59458;SDS011;45269;43.568;22.244;2022-07-21T10:18:19;2.78;;;2.40;;
59458;SDS011;45269;43.568;22.244;2022-07-21T10:20:59;3.03;;;2.80;;
59458;SDS011;45269;43.568;22.244;2022-07-21T10:23:33;5.30;;;2.53;;
59458;SDS011;45269;43.568;22.244;2022-07-21T10:25:59;11.45;;;3.13;;
59458;SDS011;45269;43.568;22.244;2022-07-21T10:28:27;6.38;;;2.72;;
59458;SDS011;45269;43.568;22.244;2022-07-21T10:30:54;3.83;;;2.80;;
59458;SDS011;45269;43.568;22.244;2022-07-21T10:33:20;2.95;;;2.53;;
59458;SDS011;45269;43.568;22.244;2022-07-21T10:35:47;2.65;;;2.45;;
59458;SDS011;45269;43.568;22.244;2022-07-21T10:38:26;7.95;;;3.45;;
59458;SDS011;45269;43.568;22.244;2022-07-21T10:40:53;8.80;;;2.88;;
59458;SDS011;45269;43.568;22.244;2022-07-21T10:45:50;2.67;;;2.20;;
59458;SDS011;45269;43.568;22.244;2022-07-21T10:50:59;2.85;;;2.35;;
59458;SDS011;45269;43.568;22.244;2022-07-21T10:53:25;3.85;;;2.60;;
59458;SDS011;45269;43.568;22.244;2022-07-21T10:55:51;5.05;;;2.45;;
59458;SDS011;45269;43.568;22.244;2022-07-21T11:00:46;4.57;;;2.40;;
59458;SDS011;45269;43.568;22.244;2022-07-21T11:03:33;7.57;;;3.45;;
59458;SDS011;45269;43.568;22.244;2022-07-21T11:08:47;5.00;;;2.58;;
59458;SDS011;45269;43.568;22.244;2022-07-21T11:19:27;5.32;;;2.70;;
59458;SDS011;45269;43.568;22.244;2022-07-21T11:21:53;5.43;;;2.53;;
59458;SDS011;45269;43.568;22.244;2022-07-21T11:24:19;5.30;;;2.65;;
59458;SDS011;45269;43.568;22.244;2022-07-21T11:26:48;3.00;;;2.08;;
59458;SDS011;45269;43.568;22.244;2022-07-21T11:29:18;2.60;;;2.30;;
59458;SDS011;45269;43.568;22.244;2022-07-21T11:31:46;4.68;;;2.55;;
59458;SDS011;45269;43.568;22.244;2022-07-21T11:36:37;3.20;;;2.50;;
59458;SDS011;45269;43.568;22.244;2022-07-21T11:39:04;5.68;;;2.45;;
59458;SDS011;45269;43.568;22.244;2022-07-21T11:41:29;4.22;;;2.75;;
59458;SDS011;45269;43.568;22.244;2022-07-21T11:43:55;6.72;;;2.30;;
59458;SDS011;45269;43.568;22.244;2022-07-21T11:46:20;3.63;;;2.30;;
59458;SDS011;45269;43.568;22.244;2022-07-21T11:48:46;3.38;;;2.50;;
59458;SDS011;45269;43.568;22.244;2022-07-21T11:51:11;3.67;;;2.60;;
59458;SDS011;45269;43.568;22.244;2022-07-21T11:53:42;5.53;;;2.83;;
59458;SDS011;45269;43.568;22.244;2022-07-21T11:56:15;2.78;;;1.92;;
59458;SDS011;45269;43.568;22.244;2022-07-21T11:58:41;4.50;;;2.38;;
59458;SDS011;45269;43.568;22.244;2022-07-21T12:01:07;4.10;;;2.60;;
59458;SDS011;45269;43.568;22.244;2022-07-21T12:03:33;5.35;;;2.55;;
59458;SDS011;45269;43.568;22.244;2022-07-21T12:05:59;5.07;;;2.42;;
59458;SDS011;45269;43.568;22.244;2022-07-21T12:08:25;2.63;;;2.10;;
59458;SDS011;45269;43.568;22.244;2022-07-21T12:10:50;3.33;;;2.30;;
59458;SDS011;45269;43.568;22.244;2022-07-21T12:13:16;3.95;;;2.53;;
59458;SDS011;45269;43.568;22.244;2022-07-21T12:15:41;2.95;;;2.40;;
59458;SDS011;45269;43.568;22.244;2022-07-21T12:18:20;5.55;;;2.28;;
59458;SDS011;45269;43.568;22.244;2022-07-21T12:20:46;3.33;;;2.47;;
59458;SDS011;45269;43.568;22.244;2022-07-21T12:25:42;2.65;;;2.28;;
59458;SDS011;45269;43.568;22.244;2022-07-21T12:28:08;5.00;;;2.40;;
59458;SDS011;45269;43.568;22.244;2022-07-21T12:35:30;4.60;;;2.92;;
59458;SDS011;45269;43.568;22.244;2022-07-21T12:37:57;9.02;;;2.67;;
59458;SDS011;45269;43.568;22.244;2022-07-21T12:40:23;3.83;;;2.60;;
59458;SDS011;45269;43.568;22.244;2022-07-21T12:42:48;3.28;;;2.50;;
59458;SDS011;45269;43.568;22.244;2022-07-21T12:45:15;4.93;;;2.45;;
59458;SDS011;45269;43.568;22.244;2022-07-21T12:47:41;4.07;;;2.80;;
59458;SDS011;45269;43.568;22.244;2022-07-21T12:50:07;6.63;;;2.60;;
59458;SDS011;45269;43.568;22.244;2022-07-21T12:52:33;5.70;;;2.60;;
59458;SDS011;45269;43.568;22.244;2022-07-21T12:54:59;5.70;;;2.45;;
59458;SDS011;45269;43.568;22.244;2022-07-21T12:57:26;3.08;;;2.67;;
59458;SDS011;45269;43.568;22.244;2022-07-21T12:59:51;3.38;;;2.55;;
59458;SDS011;45269;43.568;22.244;2022-07-21T13:02:17;3.45;;;2.80;;
59458;SDS011;45269;43.568;22.244;2022-07-21T13:04:42;4.53;;;2.90;;
59458;SDS011;45269;43.568;22.244;2022-07-21T13:07:07;5.60;;;2.92;;
59458;SDS011;45269;43.568;22.244;2022-07-21T13:09:33;3.60;;;2.20;;
59458;SDS011;45269;43.568;22.244;2022-07-21T13:11:58;4.20;;;2.95;;
59458;SDS011;45269;43.568;22.244;2022-07-21T13:14:24;4.35;;;2.80;;
59458;SDS011;45269;43.568;22.244;2022-07-21T13:16:49;4.47;;;2.63;;
59458;SDS011;45269;43.568;22.244;2022-07-21T13:19:14;8.18;;;2.60;;
59458;SDS011;45269;43.568;22.244;2022-07-21T13:21:40;4.38;;;2.60;;
59458;SDS011;45269;43.568;22.244;2022-07-21T13:24:05;4.32;;;2.35;;
59458;SDS011;45269;43.568;22.244;2022-07-21T13:26:30;6.88;;;2.80;;
59458;SDS011;45269;43.568;22.244;2022-07-21T13:28:56;5.60;;;2.75;;
59458;SDS011;45269;43.568;22.244;2022-07-21T13:31:21;4.43;;;2.83;;
59458;SDS011;45269;43.568;22.244;2022-07-21T13:33:47;6.38;;;3.08;;
59458;SDS011;45269;43.568;22.244;2022-07-21T13:36:12;5.57;;;3.05;;
59458;SDS011;45269;43.568;22.244;2022-07-21T13:38:38;3.83;;;2.63;;
59458;SDS011;45269;43.568;22.244;2022-07-21T13:41:03;5.82;;;2.80;;
59458;SDS011;45269;43.568;22.244;2022-07-21T13:43:28;6.72;;;2.88;;
59458;SDS011;45269;43.568;22.244;2022-07-21T13:45:54;4.68;;;3.00;;
59458;SDS011;45269;43.568;22.244;2022-07-21T13:48:19;5.93;;;2.75;;
59458;SDS011;45269;43.568;22.244;2022-07-21T13:50:45;5.45;;;2.63;;
59458;SDS011;45269;43.568;22.244;2022-07-21T13:53:10;7.32;;;2.75;;
59458;SDS011;45269;43.568;22.244;2022-07-21T13:55:36;7.38;;;3.20;;
59458;SDS011;45269;43.568;22.244;2022-07-21T13:58:01;4.22;;;2.85;;
59458;SDS011;45269;43.568;22.244;2022-07-21T14:00:26;6.88;;;2.72;;
59458;SDS011;45269;43.568;22.244;2022-07-21T14:02:52;4.78;;;2.70;;
59458;SDS011;45269;43.568;22.244;2022-07-21T14:05:17;4.20;;;2.40;;
59458;SDS011;45269;43.568;22.244;2022-07-21T14:07:43;4.30;;;2.88;;
59458;SDS011;45269;43.568;22.244;2022-07-21T14:10:08;3.35;;;2.55;;
59458;SDS011;45269;43.568;22.244;2022-07-21T14:12:34;5.70;;;2.88;;
59458;SDS011;45269;43.568;22.244;2022-07-21T14:14:59;4.30;;;2.60;;
59458;SDS011;45269;43.568;22.244;2022-07-21T14:17:24;4.70;;;2.63;;
59458;SDS011;45269;43.568;22.244;2022-07-21T14:19:50;5.95;;;2.80;;
59458;SDS011;45269;43.568;22.244;2022-07-21T14:22:15;3.75;;;2.53;;
59458;SDS011;45269;43.568;22.244;2022-07-21T14:24:42;6.47;;;2.70;;
59458;SDS011;45269;43.568;22.244;2022-07-21T14:27:26;3.92;;;2.33;;
59458;SDS011;45269;43.568;22.244;2022-07-21T14:29:52;5.82;;;2.97;;
59458;SDS011;45269;43.568;22.244;2022-07-21T14:32:18;5.75;;;2.83;;
59458;SDS011;45269;43.568;22.244;2022-07-21T14:34:47;4.40;;;2.72;;
59458;SDS011;45269;43.568;22.244;2022-07-21T14:37:12;5.53;;;2.85;;
59458;SDS011;45269;43.568;22.244;2022-07-21T14:39:38;4.68;;;3.03;;
59458;SDS011;45269;43.568;22.244;2022-07-21T14:42:03;6.78;;;3.00;;
59458;SDS011;45269;43.568;22.244;2022-07-21T14:44:29;4.70;;;2.70;;
59458;SDS011;45269;43.568;22.244;2022-07-21T14:46:54;6.18;;;2.70;;
59458;SDS011;45269;43.568;22.244;2022-07-21T14:49:19;2.83;;;2.63;;
59458;SDS011;45269;43.568;22.244;2022-07-21T14:51:45;7.30;;;2.67;;
59458;SDS011;45269;43.568;22.244;2022-07-21T14:54:10;6.50;;;3.10;;
59458;SDS011;45269;43.568;22.244;2022-07-21T14:56:35;4.95;;;2.88;;
59458;SDS011;45269;43.568;22.244;2022-07-21T14:59:01;7.05;;;2.95;;
59458;SDS011;45269;43.568;22.244;2022-07-21T15:01:26;4.82;;;3.13;;
59458;SDS011;45269;43.568;22.244;2022-07-21T15:03:51;4.75;;;3.20;;
59458;SDS011;45269;43.568;22.244;2022-07-21T15:06:17;7.28;;;2.70;;
59458;SDS011;45269;43.568;22.244;2022-07-21T15:08:42;4.00;;;2.60;;